createdAt,value
2018-12-22T00:00:24.137Z,1.53
2018-12-22T00:02:52.607Z,1.20
2018-12-22T00:05:20.911Z,1.20
2018-12-22T00:07:49.204Z,1.83
2018-12-22T00:10:17.486Z,1.77
2018-12-22T00:12:45.781Z,3.33
2018-12-22T00:15:14.074Z,1.10
2018-12-22T00:17:42.390Z,1.47
2018-12-22T00:20:10.672Z,1.47
2018-12-22T00:22:38.946Z,2.40
2018-12-22T00:25:07.216Z,1.30
2018-12-22T00:27:35.508Z,3.20
2018-12-22T00:30:04.476Z,1.00
2018-12-22T00:32:32.774Z,1.00
2018-12-22T00:35:01.070Z,1.40
2018-12-22T00:37:29.357Z,1.20
2018-12-22T00:39:57.638Z,1.30
2018-12-22T00:42:25.919Z,1.07
2018-12-22T00:44:54.217Z,1.10
2018-12-22T00:47:22.533Z,1.20
2018-12-22T00:49:50.811Z,1.00
2018-12-22T00:52:19.123Z,1.30
2018-12-22T00:54:47.418Z,1.00
2018-12-22T00:57:15.722Z,1.20
2018-12-22T00:59:44.034Z,1.20
2018-12-22T01:02:12.324Z,1.13
2018-12-22T01:04:40.672Z,1.00
2018-12-22T01:07:08.986Z,1.20
2018-12-22T01:09:37.301Z,1.30
2018-12-22T01:12:05.603Z,0.90
2018-12-22T01:14:33.879Z,1.20
2018-12-22T01:17:02.140Z,0.90
2018-12-22T01:19:30.426Z,1.10
2018-12-22T01:21:58.715Z,1.20
2018-12-22T01:24:27.017Z,2.03
2018-12-22T01:26:55.311Z,1.00
2018-12-22T01:29:23.595Z,1.10
2018-12-22T01:31:51.871Z,1.10
2018-12-22T01:34:20.163Z,1.23
2018-12-22T01:36:48.450Z,0.90
2018-12-22T01:39:16.753Z,1.00
2018-12-22T01:41:45.445Z,1.00
2018-12-22T01:44:13.779Z,0.93
2018-12-22T01:49:05.133Z,1.00
2018-12-22T01:51:33.419Z,0.70
2018-12-22T01:54:01.694Z,1.00
2018-12-22T01:56:30.014Z,0.90
2018-12-22T01:58:58.313Z,0.90
2018-12-22T02:01:26.595Z,1.10
2018-12-22T02:03:54.891Z,0.87
2018-12-22T02:06:23.190Z,0.90
2018-12-22T02:08:51.497Z,1.10
2018-12-22T02:11:19.782Z,0.80
2018-12-22T02:13:48.091Z,0.80
2018-12-22T02:16:16.351Z,1.00
2018-12-22T02:18:44.611Z,0.87
2018-12-22T02:21:12.928Z,1.00
2018-12-22T02:23:41.202Z,0.87
2018-12-22T02:26:09.504Z,0.93
2018-12-22T02:28:37.814Z,0.90
2018-12-22T02:31:06.099Z,0.90
2018-12-22T02:33:34.394Z,0.80
2018-12-22T02:36:02.692Z,1.03
2018-12-22T02:38:30.976Z,0.70
2018-12-22T02:40:59.259Z,0.90
2018-12-22T02:43:27.512Z,0.80
2018-12-22T02:45:55.778Z,0.70
2018-12-22T02:48:24.067Z,0.80
2018-12-22T02:50:52.353Z,0.70
2018-12-22T02:53:20.648Z,0.70
2018-12-22T02:55:48.980Z,1.00
2018-12-22T02:58:17.265Z,0.80
2018-12-22T03:00:45.667Z,0.90
2018-12-22T03:03:14.043Z,1.00
2018-12-22T03:05:42.431Z,0.80
2018-12-22T03:08:10.724Z,0.80
2018-12-22T03:10:45.616Z,0.80
2018-12-22T03:13:13.899Z,0.80
2018-12-22T03:15:42.171Z,0.70
2018-12-22T03:18:10.459Z,0.67
2018-12-22T03:20:38.736Z,0.80
2018-12-22T03:23:07.030Z,0.77
2018-12-22T03:25:35.328Z,0.80
2018-12-22T03:28:03.684Z,0.93
2018-12-22T03:30:31.982Z,0.80
2018-12-22T03:33:00.462Z,0.80
2018-12-22T03:35:28.735Z,0.60
2018-12-22T03:37:57.024Z,0.70
2018-12-22T03:40:25.350Z,0.70
2018-12-22T03:42:53.621Z,0.80
2018-12-22T03:45:22.004Z,0.60
2018-12-22T03:47:50.317Z,0.60
2018-12-22T03:50:18.626Z,0.77
2018-12-22T03:52:46.888Z,0.77
2018-12-22T03:55:15.171Z,0.70
2018-12-22T03:57:43.453Z,0.60
2018-12-22T04:00:11.814Z,0.70
2018-12-22T04:02:40.119Z,0.60
2018-12-22T04:05:08.455Z,0.70
2018-12-22T04:07:36.759Z,0.77
2018-12-22T04:10:05.649Z,0.60
2018-12-22T04:12:33.998Z,0.60
2018-12-22T04:15:02.283Z,0.70
2018-12-22T04:17:30.570Z,0.67
2018-12-22T04:19:58.859Z,0.70
2018-12-22T04:22:27.151Z,0.73
2018-12-22T04:24:55.754Z,0.50
2018-12-22T04:27:24.033Z,0.40
2018-12-22T04:29:52.322Z,0.50
2018-12-22T04:32:20.607Z,0.60
2018-12-22T04:34:48.914Z,0.60
2018-12-22T04:37:17.195Z,1.07
2018-12-22T04:39:45.491Z,0.50
2018-12-22T04:42:13.765Z,0.63
2018-12-22T04:44:42.060Z,0.50
2018-12-22T04:47:10.322Z,0.50
2018-12-22T04:49:38.595Z,0.80
2018-12-22T04:52:06.862Z,0.60
2018-12-22T04:54:35.147Z,0.60
2018-12-22T04:57:03.443Z,0.90
2018-12-22T04:59:31.720Z,0.80
2018-12-22T05:02:00.019Z,0.70
2018-12-22T05:04:28.303Z,0.90
2018-12-22T05:06:56.573Z,0.93
2018-12-22T05:09:24.854Z,1.13
2018-12-22T05:11:53.125Z,1.77
2018-12-22T05:14:21.425Z,2.33
2018-12-22T05:16:49.699Z,1.67
2018-12-22T05:19:17.977Z,2.37
2018-12-22T05:21:46.265Z,1.87
2018-12-22T05:24:14.540Z,1.70
2018-12-22T05:26:42.913Z,2.53
2018-12-22T05:29:11.263Z,1.70
2018-12-22T05:31:39.613Z,1.90
2018-12-22T05:34:08.021Z,2.20
2018-12-22T05:36:36.658Z,2.43
2018-12-22T05:39:07.142Z,2.07
2018-12-22T05:41:35.485Z,2.30
2018-12-22T05:44:03.983Z,2.60
2018-12-22T05:46:32.336Z,2.10
2018-12-22T05:49:00.722Z,2.33
2018-12-22T05:51:28.972Z,2.53
2018-12-22T05:53:57.367Z,3.13
2018-12-22T05:56:25.743Z,2.83
2018-12-22T05:58:54.106Z,2.80
2018-12-22T06:01:22.400Z,2.60
2018-12-22T06:03:50.694Z,2.67
2018-12-22T06:06:19.055Z,2.70
2018-12-22T06:08:47.400Z,2.57
2018-12-22T06:11:15.710Z,3.67
2018-12-22T06:13:44.002Z,3.37
2018-12-22T06:16:12.266Z,5.67
2018-12-22T06:18:40.591Z,2.90
2018-12-22T06:21:08.874Z,3.80
2018-12-22T06:23:37.173Z,3.60
2018-12-22T06:26:05.456Z,3.00
2018-12-22T06:28:33.769Z,3.77
2018-12-22T06:31:02.078Z,2.97
2018-12-22T06:33:30.371Z,4.47
2018-12-22T06:35:58.642Z,2.70
2018-12-22T06:38:27.010Z,3.13
2018-12-22T06:40:55.323Z,3.03
2018-12-22T06:43:23.627Z,3.00
2018-12-22T06:45:51.939Z,3.07
2018-12-22T06:48:20.199Z,4.37
2018-12-22T06:50:48.515Z,3.37
2018-12-22T06:53:16.781Z,3.07
2018-12-22T06:55:45.096Z,3.37
2018-12-22T06:58:13.431Z,3.53
2018-12-22T07:00:41.739Z,4.03
2018-12-22T07:03:10.039Z,2.90
2018-12-22T07:05:38.345Z,4.20
2018-12-22T07:08:06.657Z,3.47
2018-12-22T07:10:34.913Z,3.67
2018-12-22T07:13:03.204Z,3.97
2018-12-22T07:15:31.494Z,2.90
2018-12-22T07:17:59.785Z,2.90
2018-12-22T07:20:28.066Z,3.27
2018-12-22T07:22:56.374Z,2.97
2018-12-22T07:25:24.671Z,2.77
2018-12-22T07:27:52.964Z,3.20
2018-12-22T07:30:26.164Z,2.97
2018-12-22T07:32:56.837Z,3.30
2018-12-22T07:35:21.843Z,3.33
2018-12-22T07:37:50.142Z,3.17
2018-12-22T07:40:18.570Z,2.93
2018-12-22T07:42:46.955Z,2.70
2018-12-22T07:45:15.251Z,3.73
2018-12-22T07:47:43.536Z,3.40
2018-12-22T07:50:11.840Z,2.93
2018-12-22T07:52:40.232Z,3.90
2018-12-22T07:55:08.550Z,3.30
2018-12-22T07:57:36.957Z,3.23
2018-12-22T08:00:05.745Z,2.97
2018-12-22T08:02:34.034Z,3.63
2018-12-22T08:05:02.320Z,2.70
2018-12-22T08:07:30.614Z,3.13
2018-12-22T08:09:58.894Z,2.70
2018-12-22T08:12:27.209Z,2.80
2018-12-22T08:14:55.516Z,3.43
2018-12-22T08:17:23.811Z,3.00
2018-12-22T08:19:52.115Z,3.03
2018-12-22T08:22:20.415Z,3.03
2018-12-22T08:24:48.852Z,2.93
2018-12-22T08:27:17.147Z,2.93
2018-12-22T08:29:45.620Z,3.30
2018-12-22T08:32:14.025Z,3.80
2018-12-22T08:34:42.339Z,3.00
2018-12-22T08:37:10.634Z,2.77
2018-12-22T08:39:38.937Z,2.90
2018-12-22T08:42:07.255Z,2.70
2018-12-22T08:44:35.617Z,2.77
2018-12-22T08:47:03.924Z,2.87
2018-12-22T08:49:32.229Z,2.90
2018-12-22T08:52:00.539Z,2.57
2018-12-22T08:54:28.840Z,2.60
2018-12-22T08:56:57.135Z,3.73
2018-12-22T08:59:25.437Z,2.87
2018-12-22T09:01:53.762Z,2.77
2018-12-22T09:04:24.861Z,2.83
2018-12-22T09:06:53.181Z,2.83
2018-12-22T09:09:21.486Z,2.60
2018-12-22T09:11:49.886Z,2.37
2018-12-22T09:14:18.357Z,2.97
2018-12-22T09:16:49.618Z,2.37
2018-12-22T09:19:17.906Z,2.50
2018-12-22T09:21:46.280Z,2.60
2018-12-22T09:24:14.652Z,2.60
2018-12-22T09:26:42.924Z,2.27
2018-12-22T09:29:11.270Z,2.70
2018-12-22T09:31:39.578Z,2.43
2018-12-22T09:34:13.185Z,2.97
2018-12-22T09:36:38.208Z,2.27
2018-12-22T09:39:07.724Z,2.50
2018-12-22T09:41:36.129Z,2.33
2018-12-22T09:44:04.469Z,2.63
2018-12-22T09:46:32.855Z,2.40
2018-12-22T09:49:01.151Z,2.10
2018-12-22T09:51:29.452Z,2.23
2018-12-22T09:53:57.730Z,2.20
2018-12-22T09:56:26.044Z,3.00
2018-12-22T09:58:54.337Z,2.43
2018-12-22T10:01:22.621Z,2.40
2018-12-22T10:03:51.768Z,2.53
2018-12-22T10:06:20.046Z,2.50
2018-12-22T10:08:48.430Z,2.40
2018-12-22T10:11:16.748Z,2.77
2018-12-22T10:13:45.083Z,2.40
2018-12-22T10:16:13.380Z,2.20
2018-12-22T10:18:42.058Z,2.60
2018-12-22T10:21:11.862Z,2.67
2018-12-22T10:23:40.194Z,2.27
2018-12-22T10:26:08.534Z,2.50
2018-12-22T10:28:36.877Z,2.20
2018-12-22T10:31:05.882Z,1.87
2018-12-22T10:33:34.282Z,2.23
2018-12-22T10:36:07.306Z,2.30
2018-12-22T10:38:35.622Z,2.10
2018-12-22T10:41:03.936Z,2.10
2018-12-22T10:43:33.656Z,2.17
2018-12-22T10:46:01.938Z,1.90
2018-12-22T10:48:30.239Z,2.30
2018-12-22T10:50:58.586Z,2.00
2018-12-22T10:53:26.914Z,2.13
2018-12-22T10:55:55.220Z,2.07
2018-12-22T10:58:23.604Z,2.20
2018-12-22T11:00:54.034Z,2.33
2018-12-22T11:03:22.326Z,2.10
2018-12-22T11:05:51.106Z,1.97
2018-12-22T11:08:19.420Z,1.97
2018-12-22T11:10:47.719Z,1.97
2018-12-22T11:13:16.041Z,2.10
2018-12-22T11:15:45.706Z,2.10
2018-12-22T11:18:14.052Z,2.20
2018-12-22T11:20:42.592Z,2.20
2018-12-22T11:23:20.101Z,1.90
2018-12-22T11:25:42.050Z,2.23
2018-12-22T11:28:10.352Z,1.90
2018-12-22T11:30:41.188Z,2.00
2018-12-22T11:33:09.604Z,1.70
2018-12-22T11:35:37.905Z,2.37
2018-12-22T11:38:06.663Z,1.87
2018-12-22T11:40:36.560Z,1.90
2018-12-22T11:43:05.357Z,2.00
2018-12-22T11:45:34.763Z,1.73
2018-12-22T11:48:25.777Z,1.87
2018-12-22T11:50:54.114Z,1.87
2018-12-22T11:53:22.500Z,1.57
2018-12-22T11:55:50.819Z,1.80
2018-12-22T11:58:19.163Z,1.80
2018-12-22T12:00:47.516Z,1.97
2018-12-22T12:03:15.950Z,1.60
2018-12-22T12:05:46.578Z,1.77
2018-12-22T12:08:16.612Z,1.80
2018-12-22T12:10:46.024Z,2.00
2018-12-22T12:13:14.329Z,2.10
2018-12-22T12:15:47.888Z,1.70
2018-12-22T12:18:38.936Z,1.80
2018-12-22T12:21:07.235Z,1.90
2018-12-22T12:23:35.537Z,1.60
2018-12-22T12:26:03.865Z,1.47
2018-12-22T12:28:32.172Z,1.60
2018-12-22T12:31:00.462Z,1.83
2018-12-22T12:33:36.748Z,1.60
2018-12-22T12:36:05.064Z,1.80
2018-12-22T12:38:33.408Z,1.40
2018-12-22T12:41:01.974Z,1.73
2018-12-22T12:43:30.475Z,1.93
2018-12-22T12:45:59.157Z,1.73
2018-12-22T12:48:28.060Z,1.47
2018-12-22T12:50:59.335Z,1.60
2018-12-22T12:53:27.833Z,1.60
2018-12-22T12:55:56.183Z,1.70
2018-12-22T12:58:24.685Z,1.53
2018-12-22T13:00:53.226Z,1.80
2018-12-22T13:03:22.078Z,1.60
2018-12-22T13:05:50.393Z,1.83
2018-12-22T13:08:21.148Z,1.50
2018-12-22T13:10:50.629Z,1.60
2018-12-22T13:13:34.382Z,1.43
2018-12-22T13:16:02.939Z,1.30
2018-12-22T13:18:31.445Z,1.70
2018-12-22T13:21:00.487Z,1.60
2018-12-22T13:23:29.025Z,1.87
2018-12-22T13:25:57.316Z,1.60
2018-12-22T13:28:25.622Z,1.50
2018-12-22T13:30:53.919Z,1.50
2018-12-22T13:33:22.440Z,1.80
2018-12-22T13:35:50.845Z,1.50
2018-12-22T13:38:19.343Z,1.47
2018-12-22T13:40:47.802Z,1.57
2018-12-22T13:43:16.093Z,1.30
2018-12-22T13:45:44.422Z,1.60
2018-12-22T13:48:13.151Z,1.63
2018-12-22T13:50:41.801Z,1.30
2018-12-22T13:53:10.294Z,1.57
2018-12-22T13:55:38.593Z,1.70
2018-12-22T13:58:06.909Z,1.57
2018-12-22T14:00:40.073Z,1.30
2018-12-22T14:03:10.779Z,1.70
2018-12-22T14:05:39.085Z,1.90
2018-12-22T14:08:07.497Z,1.63
2018-12-22T14:10:35.761Z,1.80
2018-12-22T14:13:04.066Z,1.60
2018-12-22T14:15:32.863Z,1.97
2018-12-22T14:18:24.120Z,2.00
2018-12-22T14:20:52.538Z,1.70
2018-12-22T14:23:22.527Z,1.90
2018-12-22T14:25:50.813Z,2.03
2018-12-22T14:28:19.144Z,1.80
2018-12-22T14:30:47.429Z,2.27
2018-12-22T14:33:15.726Z,1.90
2018-12-22T14:35:49.968Z,2.20
2018-12-22T14:38:18.307Z,2.10
2018-12-22T14:40:46.717Z,2.27
2018-12-22T14:43:15.022Z,2.37
2018-12-22T14:45:43.325Z,2.27
2018-12-22T14:48:11.716Z,2.10
2018-12-22T14:50:40.090Z,2.07
2018-12-22T14:53:08.388Z,2.97
2018-12-22T14:55:36.673Z,2.00
2018-12-22T14:58:14.445Z,2.23
2018-12-22T15:00:42.782Z,1.87
2018-12-22T15:03:11.099Z,4.33
2018-12-22T15:05:39.757Z,1.93
2018-12-22T15:08:08.128Z,2.37
2018-12-22T15:10:36.443Z,2.00
2018-12-22T15:13:04.743Z,1.93
2018-12-22T15:15:33.055Z,2.40
2018-12-22T15:18:01.469Z,2.03
2018-12-22T15:20:31.531Z,2.20
2018-12-22T15:23:00.917Z,2.00
2018-12-22T15:25:29.620Z,2.30
2018-12-22T15:27:57.930Z,2.27
2018-12-22T15:30:26.246Z,2.43
2018-12-22T15:32:55.036Z,2.60
2018-12-22T15:35:23.548Z,2.20
2018-12-22T15:37:51.850Z,2.40
2018-12-22T15:40:20.175Z,6.30
2018-12-22T15:42:48.477Z,3.63
2018-12-22T15:45:16.780Z,3.50
2018-12-22T15:47:45.123Z,4.77
2018-12-22T15:50:16.243Z,4.77
2018-12-22T15:52:44.535Z,8.90
2018-12-22T15:55:12.846Z,4.43
2018-12-22T15:57:41.155Z,3.53
2018-12-22T16:00:11.108Z,6.33
2018-12-22T16:02:39.474Z,3.47
2018-12-22T16:05:09.151Z,2.60
2018-12-22T16:07:37.440Z,2.67
2018-12-22T16:10:09.109Z,5.10
2018-12-22T16:12:41.717Z,7.47
2018-12-22T16:15:21.050Z,5.00
2018-12-22T16:17:49.531Z,3.00
2018-12-22T16:20:17.844Z,3.27
2018-12-22T16:22:51.189Z,2.70
2018-12-22T16:25:19.514Z,3.03
2018-12-22T16:27:48.237Z,3.93
2018-12-22T16:30:20.169Z,7.03
2018-12-22T16:32:48.512Z,4.63
2018-12-22T16:35:16.928Z,4.20
2018-12-22T16:37:45.273Z,2.43
2018-12-22T16:40:13.619Z,2.53
2018-12-22T16:42:41.974Z,2.00
2018-12-22T16:45:12.989Z,2.50
2018-12-22T16:47:41.358Z,2.77
2018-12-22T16:50:12.092Z,2.43
2018-12-22T16:52:40.416Z,2.43
2018-12-22T16:55:10.929Z,2.40
2018-12-22T16:57:41.896Z,2.17
2018-12-22T17:00:14.755Z,2.10
2018-12-22T17:02:52.667Z,2.27
2018-12-22T17:05:21.209Z,2.47
2018-12-22T17:07:49.515Z,2.00
2018-12-22T17:10:17.848Z,2.50
2018-12-22T17:12:46.373Z,2.30
2018-12-22T17:15:21.943Z,2.80
2018-12-22T17:17:45.123Z,2.00
2018-12-22T17:20:13.951Z,1.90
2018-12-22T17:24:22.562Z,2.00
2018-12-22T17:26:50.857Z,2.03
2018-12-22T17:29:19.280Z,1.70
2018-12-22T17:31:47.582Z,2.83
2018-12-22T17:34:15.924Z,2.17
2018-12-22T17:36:44.268Z,2.20
2018-12-22T17:39:13.884Z,1.80
2018-12-22T17:41:43.183Z,2.03
2018-12-22T17:44:11.503Z,1.97
2018-12-22T17:46:39.807Z,2.47
2018-12-22T17:49:08.144Z,1.80
2018-12-22T17:51:36.470Z,1.60
2018-12-22T17:54:04.919Z,1.93
2018-12-22T17:56:33.300Z,2.03
2018-12-22T17:59:01.613Z,1.87
2018-12-22T18:01:29.929Z,1.90
2018-12-22T18:03:58.305Z,2.13
2018-12-22T18:06:26.619Z,2.40
2018-12-22T18:08:55.002Z,7.13
2018-12-22T18:11:23.302Z,4.63
2018-12-22T18:13:51.647Z,2.30
2018-12-22T18:16:20.073Z,3.60
2018-12-22T18:18:48.427Z,2.20
2018-12-22T18:21:17.097Z,6.27
2018-12-22T18:23:45.422Z,4.03
2018-12-22T18:26:13.770Z,2.60
2018-12-22T18:28:42.099Z,4.50
2018-12-22T18:31:10.541Z,4.13
2018-12-22T18:33:39.235Z,4.13
2018-12-22T18:36:07.584Z,2.23
2018-12-22T18:38:35.955Z,3.93
2018-12-22T18:41:05.363Z,3.83
2018-12-22T18:43:33.724Z,1.80
2018-12-22T18:46:02.084Z,1.80
2018-12-22T18:48:31.141Z,2.67
2018-12-22T18:50:59.530Z,1.90
2018-12-22T18:53:29.514Z,2.03
2018-12-22T18:55:57.877Z,1.97
2018-12-22T18:58:26.695Z,2.17
2018-12-22T19:00:55.105Z,2.90
2018-12-22T19:03:23.835Z,1.93
2018-12-22T19:05:52.221Z,1.90
2018-12-22T19:08:20.936Z,1.67
2018-12-22T19:11:07.616Z,1.97
2018-12-22T19:13:36.091Z,1.73
2018-12-22T19:16:04.792Z,1.70
2018-12-22T19:18:33.164Z,1.73
2018-12-22T19:21:01.552Z,2.87
2018-12-22T19:23:30.074Z,1.50
2018-12-22T19:25:59.030Z,2.10
2018-12-22T19:28:27.395Z,1.50
2018-12-22T19:30:56.130Z,1.70
2018-12-22T19:33:24.471Z,1.60
2018-12-22T19:35:53.045Z,2.07
2018-12-22T19:38:21.443Z,1.60
2018-12-22T19:40:49.846Z,1.60
2018-12-22T19:43:18.661Z,1.63
2018-12-22T19:45:47.373Z,6.30
2018-12-22T19:48:16.147Z,1.40
2018-12-22T19:50:44.574Z,1.53
2018-12-22T19:53:13.670Z,1.87
2018-12-22T19:55:42.083Z,1.70
2018-12-22T19:58:10.446Z,2.73
2018-12-22T20:00:39.403Z,1.57
2018-12-22T20:03:07.810Z,1.63
2018-12-22T20:05:36.248Z,1.63
2018-12-22T20:08:04.694Z,1.60
2018-12-22T20:10:33.088Z,1.60
2018-12-22T20:13:01.902Z,1.60
2018-12-22T20:15:30.322Z,1.70
2018-12-22T20:17:59.417Z,1.50
2018-12-22T20:20:29.638Z,1.70
2018-12-22T20:22:58.330Z,1.80
2018-12-22T20:25:27.158Z,1.63
2018-12-22T20:27:55.595Z,1.67
2018-12-22T20:30:24.032Z,1.70
2018-12-22T20:32:53.108Z,1.47
2018-12-22T20:35:21.530Z,1.67
2018-12-22T20:37:50.009Z,1.53
2018-12-22T20:40:18.976Z,1.30
2018-12-22T20:42:47.422Z,1.67
2018-12-22T20:45:15.912Z,1.47
2018-12-22T20:47:44.384Z,1.83
2018-12-22T20:50:12.808Z,1.50
2018-12-22T20:52:41.289Z,1.30
2018-12-22T20:55:09.805Z,1.60
2018-12-22T20:57:39.147Z,1.23
2018-12-22T21:00:07.650Z,1.53
2018-12-22T21:02:36.151Z,1.30
2018-12-22T21:05:08.433Z,1.47
2018-12-22T21:07:36.868Z,1.50
2018-12-22T21:10:05.435Z,1.50
2018-12-22T21:12:34.917Z,1.53
2018-12-22T21:15:03.552Z,1.60
2018-12-22T21:17:32.091Z,1.30
2018-12-22T21:20:00.885Z,1.50
2018-12-22T21:22:29.572Z,1.70
2018-12-22T21:24:57.994Z,1.30
2018-12-22T21:27:26.441Z,1.40
2018-12-22T21:29:55.082Z,1.60
2018-12-22T21:32:24.534Z,1.60
2018-12-22T21:34:53.124Z,1.23
2018-12-22T21:37:21.508Z,1.40
2018-12-22T21:39:49.945Z,1.37
2018-12-22T21:42:18.373Z,1.30
2018-12-22T21:44:46.925Z,1.50
2018-12-22T21:47:15.339Z,1.40
2018-12-22T21:49:44.224Z,1.67
2018-12-22T21:52:13.341Z,1.67
2018-12-22T21:54:42.457Z,1.27
2018-12-22T21:57:13.282Z,1.17
2018-12-22T21:59:41.699Z,1.40
2018-12-22T22:02:11.010Z,1.40
2018-12-22T22:04:39.400Z,1.23
2018-12-22T22:07:07.843Z,1.50
2018-12-22T22:09:36.235Z,1.20
2018-12-22T22:12:04.629Z,1.40
2018-12-22T22:14:33.653Z,1.30
2018-12-22T22:17:02.055Z,1.40
2018-12-22T22:19:30.460Z,1.20
2018-12-22T22:21:58.837Z,1.23
2018-12-22T22:24:27.241Z,1.50
2018-12-22T22:26:55.673Z,1.33
2018-12-22T22:29:24.626Z,1.43
2018-12-22T22:31:53.053Z,1.40
2018-12-22T22:34:21.419Z,1.80
2018-12-22T22:36:49.827Z,1.27
2018-12-22T22:39:18.246Z,1.43
2018-12-22T22:41:46.628Z,1.30
2018-12-22T22:44:14.984Z,1.30
2018-12-22T22:46:43.382Z,1.50
2018-12-22T22:49:11.780Z,1.40
2018-12-22T22:51:40.167Z,1.17
2018-12-22T22:54:08.510Z,1.47
2018-12-22T22:56:37.491Z,1.20
2018-12-22T22:59:05.810Z,1.30
2018-12-22T23:01:34.166Z,1.40
2018-12-22T23:04:02.565Z,1.23
2018-12-22T23:06:31.001Z,1.30
2018-12-22T23:08:59.347Z,1.17
2018-12-22T23:11:27.723Z,1.33
2018-12-22T23:13:56.047Z,1.07
2018-12-22T23:16:24.351Z,1.40
2018-12-22T23:18:52.679Z,1.20
2018-12-22T23:21:21.011Z,1.03
2018-12-22T23:23:49.379Z,1.60
2018-12-22T23:26:17.687Z,1.70
2018-12-22T23:28:46.217Z,1.30
2018-12-22T23:31:14.548Z,1.17
2018-12-22T23:33:42.867Z,1.20
2018-12-22T23:36:11.219Z,1.00
2018-12-22T23:38:39.517Z,1.20
2018-12-22T23:41:08.393Z,0.87
2018-12-22T23:43:36.713Z,1.20
2018-12-22T23:46:05.016Z,1.20
2018-12-22T23:48:33.321Z,1.30
2018-12-22T23:51:01.635Z,1.03
2018-12-22T23:53:29.934Z,1.00
2018-12-22T23:55:58.331Z,1.20
2018-12-22T23:58:26.657Z,1.20
